Time,TemperatureF,DewpointF,PressureIn,WindDirection,WindDirectionDegrees,WindSpeedMPH,WindSpeedGustMPH,Humidity,HourlyPrecipIn,Conditions,Clouds,dailyrainin,SoftwareType,DateUTC
2013-05-06 00:06:00,50.4,41.0,30.16,NE,36,0.0,1.0,71,0.00,,,0.00,weatherlink.com 1.10,2013-05-06 04:06:00,
2013-05-06 00:21:00,50.1,41.0,30.17,NNE,27,0.0,1.0,72,0.00,,,0.00,weatherlink.com 1.10,2013-05-06 04:21:00,
2013-05-06 00:36:00,49.5,41.0,30.17,NNE,27,0.0,1.0,73,0.00,,,0.00,weatherlink.com 1.10,2013-05-06 04:36:00,
2013-05-06 00:51:00,49.3,41.0,30.17,NNE,27,0.0,1.0,72,0.00,,,0.00,weatherlink.com 1.10,2013-05-06 04:51:00,
2013-05-06 01:07:00,49.6,42.0,30.17,NNE,27,0.0,0.0,74,0.00,,,0.00,weatherlink.com 1.10,2013-05-06 05:07:00,
2013-05-06 01:22:00,48.8,40.0,30.17,NNE,27,0.0,0.0,73,0.00,,,0.00,weatherlink.com 1.10,2013-05-06 05:22:00,
2013-05-06 01:37:00,48.5,41.0,30.17,NNE,27,0.0,1.0,75,0.00,,,0.00,weatherlink.com 1.10,2013-05-06 05:37:00,
2013-05-06 01:52:00,48.7,40.0,30.16,NNE,22,0.0,0.0,72,0.00,,,0.00,weatherlink.com 1.10,2013-05-06 05:52:00,
2013-05-06 02:07:00,47.9,40.0,30.16,NNE,23,0.0,0.0,75,0.00,,,0.00,weatherlink.com 1.10,2013-05-06 06:07:00,
2013-05-06 02:22:00,47.9,40.0,30.16,NNE,23,0.0,1.0,75,0.00,,,0.00,weatherlink.com 1.10,2013-05-06 06:22:00,
2013-05-06 02:37:00,47.1,40.0,30.16,NNE,22,0.0,1.0,77,0.00,,,0.00,weatherlink.com 1.10,2013-05-06 06:37:00,
2013-05-06 02:52:00,46.5,40.0,30.16,NNE,23,0.0,1.0,79,0.00,,,0.00,weatherlink.com 1.10,2013-05-06 06:52:00,
2013-05-06 03:07:00,46.3,40.0,30.16,NNE,22,0.0,1.0,79,0.00,,,0.00,weatherlink.com 1.10,2013-05-06 07:07:00,
2013-05-06 03:22:00,45.5,40.0,30.16,NNE,23,0.0,1.0,82,0.00,,,0.00,weatherlink.com 1.10,2013-05-06 07:22:00,
2013-05-06 03:37:00,44.9,39.0,30.17,NNE,23,0.0,0.0,81,0.00,,,0.00,weatherlink.com 1.10,2013-05-06 07:37:00,
2013-05-06 03:52:00,44.4,40.0,30.17,NNE,23,0.0,1.0,83,0.00,,,0.00,weatherlink.com 1.10,2013-05-06 07:52:00,
2013-05-06 04:07:00,44.4,40.0,30.17,NW,316,1.0,2.0,85,0.00,,,0.00,weatherlink.com 1.10,2013-05-06 08:07:00,
2013-05-06 04:22:00,45.1,39.0,30.17,WNW,288,0.0,1.0,80,0.00,,,0.00,weatherlink.com 1.10,2013-05-06 08:22:00,
2013-05-06 04:37:00,44.5,39.0,30.17,WNW,288,0.0,1.0,82,0.00,,,0.00,weatherlink.com 1.10,2013-05-06 08:37:00,
2013-05-06 04:52:00,43.9,39.0,30.17,WNW,290,0.0,1.0,82,0.00,,,0.00,weatherlink.com 1.10,2013-05-06 08:52:00,
2013-05-06 05:07:00,43.0,39.0,30.18,WNW,290,0.0,1.0,86,0.00,,,0.00,weatherlink.com 1.10,2013-05-06 09:07:00,
2013-05-06 05:22:00,42.5,39.0,30.18,North,358,0.0,1.0,87,0.00,,,0.00,weatherlink.com 1.10,2013-05-06 09:22:00,
2013-05-06 05:37:00,42.0,38.0,30.18,North,359,0.0,1.0,86,0.00,,,0.00,weatherlink.com 1.10,2013-05-06 09:37:00,
2013-05-06 05:52:00,41.9,39.0,30.19,NNE,26,0.0,1.0,89,0.00,,,0.00,weatherlink.com 1.10,2013-05-06 09:52:00,
2013-05-06 06:07:00,42.1,39.0,30.19,NNE,19,0.0,1.0,89,0.00,,,0.00,weatherlink.com 1.10,2013-05-06 10:07:00,
2013-05-06 06:22:00,43.7,40.0,30.19,NNE,19,0.0,1.0,88,0.00,,,0.00,weatherlink.com 1.10,2013-05-06 10:22:00,
2013-05-06 06:37:00,46.5,41.0,30.20,NNE,19,0.0,1.0,82,0.00,,,0.00,weatherlink.com 1.10,2013-05-06 10:37:00,
2013-05-06 06:52:00,48.9,43.0,30.20,NE,35,0.0,1.0,79,0.00,,,0.00,weatherlink.com 1.10,2013-05-06 10:52:00,
2013-05-06 07:07:00,52.5,44.0,30.20,WNW,295,4.0,6.0,73,0.00,,,0.00,weatherlink.com 1.10,2013-05-06 11:07:00,
2013-05-06 07:23:00,54.7,45.0,30.21,SW,233,5.0,10.0,70,0.00,,,0.00,weatherlink.com 1.10,2013-05-06 11:23:00,
2013-05-06 07:38:00,55.5,45.0,30.21,WNW,295,2.0,9.0,67,0.00,,,0.00,weatherlink.com 1.10,2013-05-06 11:38:00,
2013-05-06 07:53:00,56.7,45.0,30.21,SW,230,0.0,5.0,65,0.00,,,0.00,weatherlink.com 1.10,2013-05-06 11:53:00,
2013-05-06 08:08:00,58.2,45.0,30.21,SW,226,3.0,6.0,62,0.00,,,0.00,weatherlink.com 1.10,2013-05-06 12:08:00,
2013-05-06 08:23:00,59.3,45.0,30.22,WSW,237,1.0,6.0,59,0.00,,,0.00,weatherlink.com 1.10,2013-05-06 12:23:00,
2013-05-06 08:38:00,59.9,44.0,30.21,WNW,302,2.0,5.0,57,0.00,,,0.00,weatherlink.com 1.10,2013-05-06 12:38:00,
2013-05-06 08:53:00,60.2,46.0,30.21,SE,145,7.0,11.0,59,0.00,,,0.00,weatherlink.com 1.10,2013-05-06 12:53:00,
2013-05-06 09:08:00,59.4,47.0,30.21,South,177,5.0,12.0,63,0.00,,,0.00,weatherlink.com 1.10,2013-05-06 13:08:00,
2013-05-06 09:23:00,59.7,46.0,30.21,SSE,162,5.0,10.0,60,0.00,,,0.00,weatherlink.com 1.10,2013-05-06 13:23:00,
2013-05-06 09:38:00,61.3,47.0,30.20,SE,131,2.0,14.0,60,0.00,,,0.00,weatherlink.com 1.10,2013-05-06 13:38:00,
2013-05-06 09:53:00,63.5,45.0,30.20,SW,225,1.0,5.0,52,0.00,,,0.00,weatherlink.com 1.10,2013-05-06 13:53:00,
2013-05-06 10:08:00,65.5,47.0,30.20,WNW,300,4.0,8.0,51,0.00,,,0.00,weatherlink.com 1.10,2013-05-06 14:08:00,
2013-05-06 10:23:00,65.6,49.0,30.19,SW,221,3.0,9.0,55,0.00,,,0.00,weatherlink.com 1.10,2013-05-06 14:23:00,
2013-05-06 10:38:00,68.0,46.0,30.19,WSW,248,4.0,6.0,46,0.00,,,0.00,weatherlink.com 1.10,2013-05-06 14:38:00,
2013-05-06 10:53:00,67.4,47.0,30.19,WSW,249,3.0,8.0,48,0.00,,,0.00,weatherlink.com 1.10,2013-05-06 14:53:00,
2013-05-06 11:08:00,68.3,47.0,30.19,SSW,213,4.0,7.0,46,0.00,,,0.00,weatherlink.com 1.10,2013-05-06 15:08:00,
2013-05-06 11:23:00,70.2,45.0,30.18,SSW,205,1.0,7.0,41,0.00,,,0.00,weatherlink.com 1.10,2013-05-06 15:23:00,
2013-05-06 11:38:00,71.1,45.0,30.18,WSW,239,2.0,6.0,40,0.00,,,0.00,weatherlink.com 1.10,2013-05-06 15:38:00,
2013-05-06 11:53:00,71.9,42.0,30.17,South,169,3.0,8.0,34,0.00,,,0.00,weatherlink.com 1.10,2013-05-06 15:53:00,
2013-05-06 12:08:00,73.2,43.0,30.17,SSW,198,5.0,7.0,34,0.00,,,0.00,weatherlink.com 1.10,2013-05-06 16:08:00,
2013-05-06 12:23:00,73.4,43.0,30.16,SW,228,5.0,8.0,34,0.00,,,0.00,weatherlink.com 1.10,2013-05-06 16:23:00,
2013-05-06 12:38:00,73.2,41.0,30.15,WNW,293,4.0,11.0,31,0.00,,,0.00,weatherlink.com 1.10,2013-05-06 16:38:00,
2013-05-06 12:53:00,74.2,39.0,30.14,SSW,199,4.0,9.0,28,0.00,,,0.00,weatherlink.com 1.10,2013-05-06 16:53:00,
2013-05-06 13:09:00,74.9,37.0,30.14,SSW,206,4.0,11.0,25,0.00,,,0.00,weatherlink.com 1.10,2013-05-06 17:09:00,
2013-05-06 13:24:00,75.3,37.0,30.13,WNW,298,1.0,9.0,25,0.00,,,0.00,weatherlink.com 1.10,2013-05-06 17:24:00,
2013-05-06 13:39:00,75.9,35.0,30.13,West,271,3.0,10.0,23,0.00,,,0.00,weatherlink.com 1.10,2013-05-06 17:39:00,
2013-05-06 13:54:00,77.0,30.0,30.12,SW,233,5.0,9.0,18,0.00,,,0.00,weatherlink.com 1.10,2013-05-06 17:54:00,
2013-05-06 14:09:00,76.6,34.0,30.11,NW,319,2.0,10.0,21,0.00,,,0.00,weatherlink.com 1.10,2013-05-06 18:09:00,
2013-05-06 14:24:00,77.1,27.0,30.11,SE,143,1.0,9.0,16,0.00,,,0.00,weatherlink.com 1.10,2013-05-06 18:24:00,
2013-05-06 14:39:00,77.7,32.0,30.10,WNW,298,5.0,7.0,19,0.00,,,0.00,weatherlink.com 1.10,2013-05-06 18:39:00,
2013-05-06 14:54:00,78.5,25.0,30.09,SSW,212,4.0,7.0,14,0.00,,,0.00,weatherlink.com 1.10,2013-05-06 18:54:00,
2013-05-06 15:09:00,78.8,18.0,30.09,WNW,284,5.0,8.0,10,0.00,,,0.00,weatherlink.com 1.10,2013-05-06 19:09:00,
2013-05-06 15:24:00,79.6,28.0,30.08,SSW,208,1.0,6.0,15,0.00,,,0.00,weatherlink.com 1.10,2013-05-06 19:24:00,
2013-05-06 15:39:00,79.7,21.0,30.07,SW,226,3.0,8.0,11,0.00,,,0.00,weatherlink.com 1.10,2013-05-06 19:39:00,
2013-05-06 15:54:00,79.9,21.0,30.07,WSW,243,3.0,9.0,11,0.00,,,0.00,weatherlink.com 1.10,2013-05-06 19:54:00,
2013-05-06 16:09:00,80.1,19.0,30.07,NW,307,2.0,8.0,10,0.00,,,0.00,weatherlink.com 1.10,2013-05-06 20:09:00,
2013-05-06 16:24:00,80.2,21.0,30.06,SW,216,0.0,8.0,11,0.00,,,0.00,weatherlink.com 1.10,2013-05-06 20:24:00,
2013-05-06 16:39:00,80.7,19.0,30.06,WSW,254,2.0,7.0,10,0.00,,,0.00,weatherlink.com 1.10,2013-05-06 20:39:00,
2013-05-06 16:54:00,80.9,17.0,30.05,West,278,4.0,5.0,9,0.00,,,0.00,weatherlink.com 1.10,2013-05-06 20:54:00,
2013-05-06 17:09:00,80.4,16.0,30.05,WNW,286,0.0,8.0,9,0.00,,,0.00,weatherlink.com 1.10,2013-05-06 21:09:00,
2013-05-06 17:24:00,81.2,20.0,30.05,SW,224,2.0,5.0,10,0.00,,,0.00,weatherlink.com 1.10,2013-05-06 21:24:00,
2013-05-06 17:39:00,80.5,17.0,30.04,West,273,1.0,5.0,9,0.00,,,0.00,weatherlink.com 1.10,2013-05-06 21:39:00,
2013-05-06 17:54:00,80.2,19.0,30.04,SSW,194,3.0,4.0,10,0.00,,,0.00,weatherlink.com 1.10,2013-05-06 21:54:00,
2013-05-06 18:09:00,79.7,16.0,30.04,WSW,243,0.0,5.0,9,0.00,,,0.00,weatherlink.com 1.10,2013-05-06 22:09:00,
2013-05-06 18:24:00,79.1,20.0,30.03,SW,217,1.0,6.0,11,0.00,,,0.00,weatherlink.com 1.10,2013-05-06 22:24:00,
2013-05-06 18:39:00,78.2,19.0,30.03,WSW,237,1.0,7.0,11,0.00,,,0.00,weatherlink.com 1.10,2013-05-06 22:39:00,
2013-05-06 18:55:00,76.2,18.0,30.03,West,274,2.0,6.0,11,0.00,,,0.00,weatherlink.com 1.10,2013-05-06 22:55:00,
2013-05-06 19:10:00,75.3,21.0,30.03,SSW,205,4.0,4.0,13,0.00,,,0.00,weatherlink.com 1.10,2013-05-06 23:10:00,
2013-05-06 19:25:00,73.3,21.0,30.03,SW,230,2.0,6.0,14,0.00,,,0.00,weatherlink.com 1.10,2013-05-06 23:25:00,
2013-05-06 19:40:00,71.2,25.0,30.04,WSW,238,0.0,2.0,18,0.00,,,0.00,weatherlink.com 1.10,2013-05-06 23:40:00,
2013-05-06 19:55:00,66.3,28.0,30.03,NNW,330,1.0,1.0,24,0.00,,,0.00,weatherlink.com 1.10,2013-05-06 23:55:00,
2013-05-06 20:10:00,63.4,30.0,30.04,North,6,0.0,1.0,28,0.00,,,0.00,weatherlink.com 1.10,2013-05-07 00:10:00,
2013-05-06 20:25:00,61.3,33.0,30.04,North,6,0.0,1.0,34,0.00,,,0.00,weatherlink.com 1.10,2013-05-07 00:25:00,
2013-05-06 20:40:00,58.7,32.0,30.04,North,6,0.0,1.0,37,0.00,,,0.00,weatherlink.com 1.10,2013-05-07 00:40:00,
2013-05-06 20:55:00,56.7,33.0,30.05,North,6,0.0,0.0,41,0.00,,,0.00,weatherlink.com 1.10,2013-05-07 00:55:00,
2013-05-06 21:10:00,55.4,35.0,30.06,North,6,0.0,0.0,47,0.00,,,0.00,weatherlink.com 1.10,2013-05-07 01:10:00,
2013-05-06 21:25:00,54.3,35.0,30.06,NNE,13,0.0,1.0,48,0.00,,,0.00,weatherlink.com 1.10,2013-05-07 01:25:00,
2013-05-06 21:40:00,53.5,37.0,30.07,NNE,13,0.0,1.0,53,0.00,,,0.00,weatherlink.com 1.10,2013-05-07 01:40:00,
2013-05-06 21:55:00,52.3,35.0,30.07,NNE,13,0.0,1.0,53,0.00,,,0.00,weatherlink.com 1.10,2013-05-07 01:55:00,
2013-05-06 22:10:00,51.8,37.0,30.08,NNE,13,0.0,1.0,58,0.00,,,0.00,weatherlink.com 1.10,2013-05-07 02:10:00,
2013-05-06 22:25:00,51.0,37.0,30.08,NNE,15,0.0,1.0,59,0.00,,,0.00,weatherlink.com 1.10,2013-05-07 02:25:00,
2013-05-06 22:40:00,50.3,37.0,30.08,NNE,15,0.0,1.0,61,0.00,,,0.00,weatherlink.com 1.10,2013-05-07 02:40:00,
2013-05-06 22:55:00,49.7,37.0,30.09,NNE,15,0.0,1.0,62,0.00,,,0.00,weatherlink.com 1.10,2013-05-07 02:55:00,
2013-05-06 23:10:00,49.3,38.0,30.09,NNE,15,0.0,1.0,65,0.00,,,0.00,weatherlink.com 1.10,2013-05-07 03:10:00,
2013-05-06 23:25:00,48.9,38.0,30.09,NNE,27,0.0,1.0,67,0.00,,,0.00,weatherlink.com 1.10,2013-05-07 03:25:00,
2013-05-06 23:40:00,48.5,39.0,30.09,NNE,27,0.0,1.0,71,0.00,,,0.00,weatherlink.com 1.10,2013-05-07 03:40:00,
2013-05-06 23:55:00,47.8,39.0,30.09,NNE,27,0.0,0.0,72,0.00,,,0.00,weatherlink.com 1.10,2013-05-07 03:55:00,